sensor_id;sensor_type;location;lat;lon;timestamp;pressure;altitude;pressure_sealevel;temperature;humidity
18858;BME280;9558;50.178;8.370;2022-10-31T00:01:01;98714.56;;;10.13;100.00
18858;BME280;9558;50.178;8.370;2022-10-31T00:03:29;98723.16;;;10.13;100.00
18858;BME280;9558;50.178;8.370;2022-10-31T00:05:55;98722.16;;;10.14;100.00
18858;BME280;9558;50.178;8.370;2022-10-31T00:08:21;98720.56;;;10.13;100.00
18858;BME280;9558;50.178;8.370;2022-10-31T00:10:48;98725.75;;;10.13;100.00
18858;BME280;9558;50.178;8.370;2022-10-31T00:13:15;98717.00;;;10.14;100.00
18858;BME280;9558;50.178;8.370;2022-10-31T00:15:41;98724.59;;;10.16;100.00
18858;BME280;9558;50.178;8.370;2022-10-31T00:18:09;98727.06;;;10.17;100.00
18858;BME280;9558;50.178;8.370;2022-10-31T00:20:37;98723.78;;;10.15;100.00
18858;BME280;9558;50.178;8.370;2022-10-31T00:23:04;98726.38;;;10.15;100.00
18858;BME280;9558;50.178;8.370;2022-10-31T00:25:32;98732.22;;;10.17;100.00
18858;BME280;9558;50.178;8.370;2022-10-31T00:27:59;98731.91;;;10.20;100.00
18858;BME280;9558;50.178;8.370;2022-10-31T00:30:26;98736.56;;;10.17;100.00
18858;BME280;9558;50.178;8.370;2022-10-31T00:32:52;98735.94;;;10.15;100.00
18858;BME280;9558;50.178;8.370;2022-10-31T00:35:19;98729.28;;;10.12;100.00
18858;BME280;9558;50.178;8.370;2022-10-31T00:37:47;98736.41;;;10.10;100.00
18858;BME280;9558;50.178;8.370;2022-10-31T00:40:13;98740.59;;;10.11;100.00
18858;BME280;9558;50.178;8.370;2022-10-31T00:42:40;98736.41;;;10.10;100.00
18858;BME280;9558;50.178;8.370;2022-10-31T00:45:07;98740.28;;;10.14;100.00
18858;BME280;9558;50.178;8.370;2022-10-31T00:47:34;98746.44;;;10.13;100.00
18858;BME280;9558;50.178;8.370;2022-10-31T00:50:00;98730.91;;;10.13;100.00
18858;BME280;9558;50.178;8.370;2022-10-31T00:52:27;98735.09;;;10.14;100.00
18858;BME280;9558;50.178;8.370;2022-10-31T00:54:54;98732.22;;;10.17;100.00
18858;BME280;9558;50.178;8.370;2022-10-31T00:57:21;98733.34;;;10.15;100.00
18858;BME280;9558;50.178;8.370;2022-10-31T00:59:47;98734.13;;;10.15;100.00
18858;BME280;9558;50.178;8.370;2022-10-31T01:02:14;98732.22;;;10.17;100.00
18858;BME280;9558;50.178;8.370;2022-10-31T01:04:40;98727.50;;;10.13;100.00
18858;BME280;9558;50.178;8.370;2022-10-31T01:07:07;98728.50;;;10.12;100.00
18858;BME280;9558;50.178;8.370;2022-10-31T01:09:33;98731.25;;;10.10;100.00
18858;BME280;9558;50.178;8.370;2022-10-31T01:12:01;98735.44;;;10.11;100.00
18858;BME280;9558;50.178;8.370;2022-10-31T01:14:27;98728.00;;;10.08;100.00
18858;BME280;9558;50.178;8.370;2022-10-31T01:16:54;98733.66;;;10.12;100.00
18858;BME280;9558;50.178;8.370;2022-10-31T01:19:20;98733.66;;;10.12;100.00
18858;BME280;9558;50.178;8.370;2022-10-31T01:21:47;98730.91;;;10.13;100.00
18858;BME280;9558;50.178;8.370;2022-10-31T01:24:13;98725.59;;;10.15;100.00
18858;BME280;9558;50.178;8.370;2022-10-31T01:26:40;98721.38;;;10.14;100.00
18858;BME280;9558;50.178;8.370;2022-10-31T01:29:07;98724.75;;;10.14;100.00
18858;BME280;9558;50.178;8.370;2022-10-31T01:31:36;98722.69;;;10.18;100.00
18858;BME280;9558;50.178;8.370;2022-10-31T01:34:04;98719.41;;;10.16;100.00
18858;BME280;9558;50.178;8.370;2022-10-31T01:36:32;98709.06;;;10.16;100.00
18858;BME280;9558;50.178;8.370;2022-10-31T01:39:02;98712.66;;;10.15;100.00
18858;BME280;9558;50.178;8.370;2022-10-31T01:41:31;98708.94;;;10.17;100.00
18858;BME280;9558;50.178;8.370;2022-10-31T01:44:00;98708.78;;;10.19;100.00
18858;BME280;9558;50.178;8.370;2022-10-31T01:46:31;98712.81;;;10.21;100.00
18858;BME280;9558;50.178;8.370;2022-10-31T01:49:00;98702.47;;;10.21;100.00
18858;BME280;9558;50.178;8.370;2022-10-31T01:51:31;98716.84;;;10.24;100.00
18858;BME280;9558;50.178;8.370;2022-10-31T01:54:01;98709.75;;;10.26;100.00
18858;BME280;9558;50.178;8.370;2022-10-31T01:56:28;98707.97;;;10.27;100.00
18858;BME280;9558;50.178;8.370;2022-10-31T01:58:55;98707.34;;;10.25;100.00
18858;BME280;9558;50.178;8.370;2022-10-31T02:01:23;98711.06;;;10.22;100.00
18858;BME280;9558;50.178;8.370;2022-10-31T02:03:52;98707.63;;;10.21;100.00
18858;BME280;9558;50.178;8.370;2022-10-31T02:06:26;98707.00;;;10.19;100.00
18858;BME280;9558;50.178;8.370;2022-10-31T02:08:56;98715.06;;;10.16;100.00
18858;BME280;9558;50.178;8.370;2022-10-31T02:11:25;98722.69;;;10.18;100.00
18858;BME280;9558;50.178;8.370;2022-10-31T02:13:54;98718.31;;;10.18;100.00
18858;BME280;9558;50.178;8.370;2022-10-31T02:16:20;98719.13;;;10.19;100.00
18858;BME280;9558;50.178;8.370;2022-10-31T02:18:47;98715.38;;;10.21;100.00
18858;BME280;9558;50.178;8.370;2022-10-31T02:21:19;98722.16;;;10.14;100.00
18858;BME280;9558;50.178;8.370;2022-10-31T02:26:56;98713.78;;;10.12;100.00
18858;BME280;9558;50.178;8.370;2022-10-31T02:32:41;98721.72;;;10.19;100.00
18858;BME280;9558;50.178;8.370;2022-10-31T02:35:13;98713.78;;;10.12;100.00
18858;BME280;9558;50.178;8.370;2022-10-31T02:37:44;98712.31;;;10.10;100.00
18858;BME280;9558;50.178;8.370;2022-10-31T02:40:17;98711.34;;;10.11;100.00
18858;BME280;9558;50.178;8.370;2022-10-31T02:42:51;98710.56;;;10.10;100.00
18858;BME280;9558;50.178;8.370;2022-10-31T02:45:25;98711.97;;;10.13;100.00
18858;BME280;9558;50.178;8.370;2022-10-31T02:47:58;98708.94;;;10.09;100.00
18858;BME280;9558;50.178;8.370;2022-10-31T02:50:29;98705.50;;;10.09;100.00
18858;BME280;9558;50.178;8.370;2022-10-31T02:52:56;98709.56;;;10.11;100.00
18858;BME280;9558;50.178;8.370;2022-10-31T02:55:46;98705.38;;;10.10;100.00
18858;BME280;9558;50.178;8.370;2022-10-31T02:58:19;98706.19;;;10.11;100.00
18858;BME280;9558;50.178;8.370;2022-10-31T03:00:56;98696.94;;;10.08;100.00
18858;BME280;9558;50.178;8.370;2022-10-31T03:03:33;98700.50;;;10.07;100.00
18858;BME280;9558;50.178;8.370;2022-10-31T03:06:07;98692.75;;;10.07;100.00
18858;BME280;9558;50.178;8.370;2022-10-31T03:08:37;98692.09;;;10.05;100.00
18858;BME280;9558;50.178;8.370;2022-10-31T03:11:08;98696.59;;;10.03;100.00
18858;BME280;9558;50.178;8.370;2022-10-31T03:13:39;98696.75;;;10.01;100.00
18858;BME280;9558;50.178;8.370;2022-10-31T03:16:13;98701.78;;;10.03;100.00
18858;BME280;9558;50.178;8.370;2022-10-31T03:18:44;98699.19;;;10.03;100.00
18858;BME280;9558;50.178;8.370;2022-10-31T03:21:18;98699.19;;;10.03;100.00
18858;BME280;9558;50.178;8.370;2022-10-31T03:23:48;98689.16;;;10.00;100.00
18858;BME280;9558;50.178;8.370;2022-10-31T03:26:17;98695.97;;;10.01;100.00
18858;BME280;9558;50.178;8.370;2022-10-31T03:28:45;98689.16;;;10.00;100.00
18858;BME280;9558;50.178;8.370;2022-10-31T03:31:16;98689.53;;;10.05;100.00
18858;BME280;9558;50.178;8.370;2022-10-31T03:33:46;98693.38;;;10.01;100.00
18858;BME280;9558;50.178;8.370;2022-10-31T03:36:15;98685.28;;;9.96;100.00
18858;BME280;9558;50.178;8.370;2022-10-31T03:38:43;98686.28;;;9.95;100.00
18858;BME280;9558;50.178;8.370;2022-10-31T03:41:16;98691.44;;;9.95;100.00
18858;BME280;9558;50.178;8.370;2022-10-31T03:43:49;98685.59;;;9.93;100.00
18858;BME280;9558;50.178;8.370;2022-10-31T03:46:19;98679.78;;;9.91;100.00
18858;BME280;9558;50.178;8.370;2022-10-31T03:48:47;98681.72;;;9.89;100.00
18858;BME280;9558;50.178;8.370;2022-10-31T03:51:16;98677.53;;;9.88;100.00
18858;BME280;9558;50.178;8.370;2022-10-31T03:53:50;98675.59;;;9.90;100.00
18858;BME280;9558;50.178;8.370;2022-10-31T03:56:22;98674.94;;;9.88;100.00
18858;BME280;9558;50.178;8.370;2022-10-31T03:58:58;98679.28;;;9.87;100.00
18858;BME280;9558;50.178;8.370;2022-10-31T04:01:29;98677.81;;;9.84;100.00
18858;BME280;9558;50.178;8.370;2022-10-31T04:03:58;98682.84;;;9.86;100.00
18858;BME280;9558;50.178;8.370;2022-10-31T04:06:25;98689.78;;;9.85;100.00
18858;BME280;9558;50.178;8.370;2022-10-31T04:08:58;98682.03;;;9.85;100.00
18858;BME280;9558;50.178;8.370;2022-10-31T04:11:28;98680.56;;;9.83;100.00
18858;BME280;9558;50.178;8.370;2022-10-31T04:13:57;98690.25;;;9.81;100.00
18858;BME280;9558;50.178;8.370;2022-10-31T04:16:26;98690.41;;;9.79;100.00
18858;BME280;9558;50.178;8.370;2022-10-31T04:18:53;98690.59;;;9.78;100.00
18858;BME280;9558;50.178;8.370;2022-10-31T04:21:26;98683.00;;;9.76;100.00
18858;BME280;9558;50.178;8.370;2022-10-31T04:23:53;98694.44;;;9.74;100.00
18858;BME280;9558;50.178;8.370;2022-10-31T04:26:20;98698.81;;;9.73;100.00
18858;BME280;9558;50.178;8.370;2022-10-31T04:28:46;98704.78;;;9.74;100.00
18858;BME280;9558;50.178;8.370;2022-10-31T04:31:14;98697.19;;;9.72;100.00
18858;BME280;9558;50.178;8.370;2022-10-31T04:33:40;98695.56;;;9.71;100.00
18858;BME280;9558;50.178;8.370;2022-10-31T04:36:07;98698.94;;;9.72;100.00
18858;BME280;9558;50.178;8.370;2022-10-31T04:38:35;98697.19;;;9.72;100.00
18858;BME280;9558;50.178;8.370;2022-10-31T04:41:02;98697.19;;;9.72;100.00
18858;BME280;9558;50.178;8.370;2022-10-31T04:43:28;98701.41;;;9.73;100.00
18858;BME280;9558;50.178;8.370;2022-10-31T04:45:55;98692.97;;;9.71;100.00
18858;BME280;9558;50.178;8.370;2022-10-31T04:48:21;98698.94;;;9.72;100.00
18858;BME280;9558;50.178;8.370;2022-10-31T04:50:47;98700.09;;;9.69;100.00
18858;BME280;9558;50.178;8.370;2022-10-31T04:53:14;98696.34;;;9.72;100.00
18858;BME280;9558;50.178;8.370;2022-10-31T04:55:42;98693.63;;;9.73;100.00
18858;BME280;9558;50.178;8.370;2022-10-31T04:58:08;98694.44;;;9.74;100.00
18858;BME280;9558;50.178;8.370;2022-10-31T05:00:35;98683.31;;;9.73;100.00
18858;BME280;9558;50.178;8.370;2022-10-31T05:03:01;98688.47;;;9.73;100.00
18858;BME280;9558;50.178;8.370;2022-10-31T05:05:29;98683.31;;;9.73;100.00
18858;BME280;9558;50.178;8.370;2022-10-31T05:07:56;98684.09;;;9.74;100.00
18858;BME280;9558;50.178;8.370;2022-10-31T05:10:28;98687.84;;;9.79;100.00
18858;BME280;9558;50.178;8.370;2022-10-31T05:12:59;98675.38;;;9.75;100.00
18858;BME280;9558;50.178;8.370;2022-10-31T05:15:42;98677.16;;;9.74;100.00
18858;BME280;9558;50.178;8.370;2022-10-31T05:18:12;98677.16;;;9.74;100.00
18858;BME280;9558;50.178;8.370;2022-10-31T05:20:41;98676.19;;;9.75;100.00
18858;BME280;9558;50.178;8.370;2022-10-31T05:23:07;98678.78;;;9.75;100.00
18858;BME280;9558;50.178;8.370;2022-10-31T05:25:34;98677.16;;;9.74;100.00
18858;BME280;9558;50.178;8.370;2022-10-31T05:28:02;98678.13;;;9.73;100.00
18858;BME280;9558;50.178;8.370;2022-10-31T05:30:30;98679.72;;;9.74;100.00
18858;BME280;9558;50.178;8.370;2022-10-31T05:32:57;98675.38;;;9.75;100.00
18858;BME280;9558;50.178;8.370;2022-10-31T05:35:25;98670.22;;;9.75;100.00
18858;BME280;9558;50.178;8.370;2022-10-31T05:37:52;98671.81;;;9.76;100.00
18858;BME280;9558;50.178;8.370;2022-10-31T05:40:20;98668.94;;;9.79;100.00
18858;BME280;9558;50.178;8.370;2022-10-31T05:42:46;98671.03;;;9.75;100.00
18858;BME280;9558;50.178;8.370;2022-10-31T05:45:16;98672.97;;;9.73;100.00
18858;BME280;9558;50.178;8.370;2022-10-31T05:47:50;98666.16;;;9.72;100.00
18858;BME280;9558;50.178;8.370;2022-10-31T05:50:16;98672.97;;;9.73;100.00
18858;BME280;9558;50.178;8.370;2022-10-31T05:52:43;98676.34;;;9.74;100.00
18858;BME280;9558;50.178;8.370;2022-10-31T05:55:09;98672.13;;;9.73;100.00
18858;BME280;9558;50.178;8.370;2022-10-31T05:57:35;98668.09;;;9.70;100.00
18858;BME280;9558;50.178;8.370;2022-10-31T06:00:03;98669.72;;;9.71;100.00
18858;BME280;9558;50.178;8.370;2022-10-31T06:02:31;98670.38;;;9.73;100.00
18858;BME280;9558;50.178;8.370;2022-10-31T06:04:59;98665.34;;;9.72;100.00
18858;BME280;9558;50.178;8.370;2022-10-31T06:07:26;98672.97;;;9.73;100.00
18858;BME280;9558;50.178;8.370;2022-10-31T06:09:53;98675.22;;;9.76;100.00
18858;BME280;9558;50.178;8.370;2022-10-31T06:12:19;98674.41;;;9.76;100.00
18858;BME280;9558;50.178;8.370;2022-10-31T06:14:45;98672.66;;;9.76;100.00
18858;BME280;9558;50.178;8.370;2022-10-31T06:17:12;98673.75;;;9.74;100.00
18858;BME280;9558;50.178;8.370;2022-10-31T06:19:40;98671.03;;;9.75;100.00
18858;BME280;9558;50.178;8.370;2022-10-31T06:22:06;98669.41;;;9.74;100.00
18858;BME280;9558;50.178;8.370;2022-10-31T06:24:33;98665.06;;;9.75;100.00
18858;BME280;9558;50.178;8.370;2022-10-31T06:26:59;98665.84;;;9.75;100.00
18858;BME280;9558;50.178;8.370;2022-10-31T06:29:26;98660.38;;;9.78;100.00
18858;BME280;9558;50.178;8.370;2022-10-31T06:31:52;98665.22;;;9.81;100.00
18858;BME280;9558;50.178;8.370;2022-10-31T06:34:19;98668.16;;;9.86;100.00
18858;BME280;9558;50.178;8.370;2022-10-31T06:36:47;98667.81;;;9.90;100.00
18858;BME280;9558;50.178;8.370;2022-10-31T06:39:13;98667.50;;;9.93;100.00
18858;BME280;9558;50.178;8.370;2022-10-31T06:41:40;98658.13;;;10.00;100.00
18858;BME280;9558;50.178;8.370;2022-10-31T06:44:07;98662.84;;;10.05;100.00
18858;BME280;9558;50.178;8.370;2022-10-31T06:46:34;98662.06;;;10.12;100.00
18858;BME280;9558;50.178;8.370;2022-10-31T06:49:00;98666.56;;;10.18;100.00
18858;BME280;9558;50.178;8.370;2022-10-31T06:51:27;98668.38;;;10.26;100.00
18858;BME280;9558;50.178;8.370;2022-10-31T06:53:54;98670.19;;;10.34;100.00
18858;BME280;9558;50.178;8.370;2022-10-31T06:56:21;98680.38;;;10.44;100.00
18858;BME280;9558;50.178;8.370;2022-10-31T06:58:47;98678.59;;;10.52;100.00
18858;BME280;9558;50.178;8.370;2022-10-31T07:01:14;98674.22;;;10.61;100.00
18858;BME280;9558;50.178;8.370;2022-10-31T07:03:40;98675.00;;;10.70;100.00
18858;BME280;9558;50.178;8.370;2022-10-31T07:06:07;98674.06;;;10.79;100.00
18858;BME280;9558;50.178;8.370;2022-10-31T07:08:33;98674.69;;;10.89;100.00
18858;BME280;9558;50.178;8.370;2022-10-31T07:11:01;98674.50;;;10.99;100.00
18858;BME280;9558;50.178;8.370;2022-10-31T07:13:27;98681.09;;;11.10;100.00
18858;BME280;9558;50.178;8.370;2022-10-31T07:15:55;98680.75;;;11.21;100.00
18858;BME280;9558;50.178;8.370;2022-10-31T07:18:25;98673.75;;;11.30;100.00
18858;BME280;9558;50.178;8.370;2022-10-31T07:20:51;98675.34;;;11.39;100.00
18858;BME280;9558;50.178;8.370;2022-10-31T07:23:18;98668.34;;;11.48;100.00
18858;BME280;9558;50.178;8.370;2022-10-31T07:25:45;98675.44;;;11.54;100.00
18858;BME280;9558;50.178;8.370;2022-10-31T07:28:14;98671.84;;;11.64;100.00
18858;BME280;9558;50.178;8.370;2022-10-31T07:30:40;98674.59;;;11.70;100.00
18858;BME280;9558;50.178;8.370;2022-10-31T07:33:06;98676.50;;;11.76;100.00
18858;BME280;9558;50.178;8.370;2022-10-31T07:35:33;98679.06;;;11.85;100.00
18858;BME280;9558;50.178;8.370;2022-10-31T07:38:07;98681.47;;;11.95;100.00
18858;BME280;9558;50.178;8.370;2022-10-31T07:40:33;98686.22;;;12.06;100.00
18858;BME280;9558;50.178;8.370;2022-10-31T07:43:00;98686.00;;;12.16;100.00
18858;BME280;9558;50.178;8.370;2022-10-31T07:45:28;98681.53;;;12.33;100.00
18858;BME280;9558;50.178;8.370;2022-10-31T07:47:54;98681.81;;;12.76;100.00
18858;BME280;9558;50.178;8.370;2022-10-31T07:50:22;98676.50;;;13.22;100.00
18858;BME280;9558;50.178;8.370;2022-10-31T07:52:58;98671.25;;;13.82;100.00
18858;BME280;9558;50.178;8.370;2022-10-31T07:55:24;98679.00;;;14.40;100.00
18858;BME280;9558;50.178;8.370;2022-10-31T07:57:55;98676.06;;;15.00;100.00
18858;BME280;9558;50.178;8.370;2022-10-31T08:00:22;98684.59;;;15.57;100.00
18858;BME280;9558;50.178;8.370;2022-10-31T08:02:56;98685.53;;;15.84;100.00
18858;BME280;9558;50.178;8.370;2022-10-31T08:05:22;98683.00;;;16.18;100.00
18858;BME280;9558;50.178;8.370;2022-10-31T08:07:49;98687.66;;;16.42;100.00
18858;BME280;9558;50.178;8.370;2022-10-31T08:10:15;98685.63;;;16.71;100.00
18858;BME280;9558;50.178;8.370;2022-10-31T08:12:42;98692.06;;;17.02;97.52
18858;BME280;9558;50.178;8.370;2022-10-31T08:15:09;98686.38;;;17.32;96.23
18858;BME280;9558;50.178;8.370;2022-10-31T08:17:36;98684.66;;;17.58;93.37
18858;BME280;9558;50.178;8.370;2022-10-31T08:20:05;98683.38;;;17.81;92.25
18858;BME280;9558;50.178;8.370;2022-10-31T08:22:31;98691.59;;;17.91;91.79
18858;BME280;9558;50.178;8.370;2022-10-31T08:24:58;98692.94;;;18.00;90.87
18858;BME280;9558;50.178;8.370;2022-10-31T08:27:24;98687.69;;;18.00;89.88
18858;BME280;9558;50.178;8.370;2022-10-31T08:29:51;98694.56;;;17.94;89.39
18858;BME280;9558;50.178;8.370;2022-10-31T08:32:17;98684.34;;;17.86;88.90
18858;BME280;9558;50.178;8.370;2022-10-31T08:34:43;98688.59;;;17.81;87.56
18858;BME280;9558;50.178;8.370;2022-10-31T08:37:11;98680.22;;;17.65;88.11
18858;BME280;9558;50.178;8.370;2022-10-31T08:39:38;98680.84;;;17.54;88.86
18858;BME280;9558;50.178;8.370;2022-10-31T08:42:04;98686.94;;;17.41;89.05
18858;BME280;9558;50.178;8.370;2022-10-31T08:44:31;98682.34;;;17.23;87.68
18858;BME280;9558;50.178;8.370;2022-10-31T08:46:57;98677.38;;;17.08;88.86
18858;BME280;9558;50.178;8.370;2022-10-31T08:49:24;98677.59;;;16.93;89.39
18858;BME280;9558;50.178;8.370;2022-10-31T08:51:50;98673.16;;;16.80;90.22
18858;BME280;9558;50.178;8.370;2022-10-31T08:54:18;98667.16;;;16.66;90.97
18858;BME280;9558;50.178;8.370;2022-10-31T08:56:44;98661.50;;;16.56;91.73
18858;BME280;9558;50.178;8.370;2022-10-31T08:59:11;98657.09;;;16.50;92.58
18858;BME280;9558;50.178;8.370;2022-10-31T09:01:37;98650.88;;;16.44;93.07
18858;BME280;9558;50.178;8.370;2022-10-31T09:04:04;98646.66;;;16.36;93.73
18858;BME280;9558;50.178;8.370;2022-10-31T09:06:30;98646.66;;;16.30;94.18
18858;BME280;9558;50.178;8.370;2022-10-31T09:08:57;98654.25;;;16.24;94.80
18858;BME280;9558;50.178;8.370;2022-10-31T09:11:25;98651.25;;;16.21;95.23
18858;BME280;9558;50.178;8.370;2022-10-31T09:13:52;98648.84;;;16.19;95.47
18858;BME280;9558;50.178;8.370;2022-10-31T09:16:18;98649.06;;;16.18;95.93
18858;BME280;9558;50.178;8.370;2022-10-31T09:18:45;98649.06;;;16.18;96.56
18858;BME280;9558;50.178;8.370;2022-10-31T09:21:11;98649.06;;;16.18;96.80
18858;BME280;9558;50.178;8.370;2022-10-31T09:23:37;98647.44;;;16.17;97.14
18858;BME280;9558;50.178;8.370;2022-10-31T09:26:04;98651.47;;;16.19;97.52
18858;BME280;9558;50.178;8.370;2022-10-31T09:28:33;98647.84;;;16.20;97.84
18858;BME280;9558;50.178;8.370;2022-10-31T09:30:59;98635.19;;;16.24;97.93
18858;BME280;9558;50.178;8.370;2022-10-31T09:33:26;98633.16;;;16.26;98.20
18858;BME280;9558;50.178;8.370;2022-10-31T09:35:52;98639.81;;;16.29;98.51
18858;BME280;9558;50.178;8.370;2022-10-31T09:38:20;98633.19;;;16.33;98.56
18858;BME280;9558;50.178;8.370;2022-10-31T09:40:50;98638.81;;;16.36;98.85
18858;BME280;9558;50.178;8.370;2022-10-31T09:43:23;98632.19;;;16.40;98.72
18858;BME280;9558;50.178;8.370;2022-10-31T09:46:00;98640.63;;;16.42;99.00
18858;BME280;9558;50.178;8.370;2022-10-31T09:48:43;98638.22;;;16.48;99.26
18858;BME280;9558;50.178;8.370;2022-10-31T09:51:16;98641.00;;;16.53;99.46
18858;BME280;9558;50.178;8.370;2022-10-31T09:53:47;98641.44;;;16.56;99.52
18858;BME280;9558;50.178;8.370;2022-10-31T09:56:17;98635.78;;;16.59;99.83
18858;BME280;9558;50.178;8.370;2022-10-31T09:58:46;98642.22;;;16.64;99.51
18858;BME280;9558;50.178;8.370;2022-10-31T10:01:32;98633.78;;;16.68;99.42
18858;BME280;9558;50.178;8.370;2022-10-31T10:04:04;98636.19;;;16.76;99.41
18858;BME280;9558;50.178;8.370;2022-10-31T10:06:39;98638.59;;;16.78;99.25
18858;BME280;9558;50.178;8.370;2022-10-31T10:09:09;98630.53;;;16.86;99.29
18858;BME280;9558;50.178;8.370;2022-10-31T10:11:46;98625.31;;;16.93;99.08
18858;BME280;9558;50.178;8.370;2022-10-31T10:14:29;98617.03;;;17.03;99.09
18858;BME280;9558;50.178;8.370;2022-10-31T10:17:11;98624.88;;;17.09;97.50
18858;BME280;9558;50.178;8.370;2022-10-31T10:19:53;98624.03;;;17.16;97.55
18858;BME280;9558;50.178;8.370;2022-10-31T10:22:27;98622.81;;;17.18;95.10
18858;BME280;9558;50.178;8.370;2022-10-31T10:25:08;98619.16;;;17.26;97.05
18858;BME280;9558;50.178;8.370;2022-10-31T10:27:46;98620.56;;;17.35;96.74
18858;BME280;9558;50.178;8.370;2022-10-31T10:30:17;98627.41;;;17.36;95.22
18858;BME280;9558;50.178;8.370;2022-10-31T10:32:49;98624.34;;;17.39;95.47
18858;BME280;9558;50.178;8.370;2022-10-31T10:35:24;98623.53;;;17.45;95.75
18858;BME280;9558;50.178;8.370;2022-10-31T10:37:54;98620.47;;;17.49;94.99
18858;BME280;9558;50.178;8.370;2022-10-31T10:40:24;98613.41;;;17.56;95.86
18858;BME280;9558;50.178;8.370;2022-10-31T10:42:57;98621.00;;;17.64;95.75
18858;BME280;9558;50.178;8.370;2022-10-31T10:45:43;98610.50;;;17.71;94.21
18858;BME280;9558;50.178;8.370;2022-10-31T10:48:33;98614.53;;;17.73;86.98
18858;BME280;9558;50.178;8.370;2022-10-31T10:51:04;98613.69;;;17.79;91.77
18858;BME280;9558;50.178;8.370;2022-10-31T10:53:42;98612.41;;;17.89;93.00
18858;BME280;9558;50.178;8.370;2022-10-31T10:56:34;98616.41;;;17.98;93.55
18858;BME280;9558;50.178;8.370;2022-10-31T10:59:03;98605.69;;;18.06;91.91
18858;BME280;9558;50.178;8.370;2022-10-31T11:01:30;98604.22;;;18.10;83.92
18858;BME280;9558;50.178;8.370;2022-10-31T11:03:57;98592.47;;;18.20;90.05
18858;BME280;9558;50.178;8.370;2022-10-31T11:06:24;98592.88;;;18.23;83.88
18858;BME280;9558;50.178;8.370;2022-10-31T11:08:51;98585.53;;;18.32;87.15
18858;BME280;9558;50.178;8.370;2022-10-31T11:11:24;98586.28;;;18.39;83.79
18858;BME280;9558;50.178;8.370;2022-10-31T11:13:57;98584.81;;;18.43;86.25
18858;BME280;9558;50.178;8.370;2022-10-31T11:16:30;98574.91;;;18.45;83.07
18858;BME280;9558;50.178;8.370;2022-10-31T11:19:08;98572.03;;;18.54;83.43
18858;BME280;9558;50.178;8.370;2022-10-31T11:21:35;98570.34;;;18.59;85.61
18858;BME280;9558;50.178;8.370;2022-10-31T11:24:02;98567.88;;;18.64;84.51
18858;BME280;9558;50.178;8.370;2022-10-31T11:26:29;98555.72;;;18.70;85.03
18858;BME280;9558;50.178;8.370;2022-10-31T11:28:56;98550.03;;;18.73;83.49
18858;BME280;9558;50.178;8.370;2022-10-31T11:31:24;98558.09;;;18.72;78.47
18858;BME280;9558;50.178;8.370;2022-10-31T11:33:57;98560.66;;;18.78;81.23
18858;BME280;9558;50.178;8.370;2022-10-31T11:36:28;98554.75;;;18.83;82.08
18858;BME280;9558;50.178;8.370;2022-10-31T11:38:57;98550.34;;;18.83;79.14
18858;BME280;9558;50.178;8.370;2022-10-31T11:41:28;98549.91;;;18.87;81.47
18858;BME280;9558;50.178;8.370;2022-10-31T11:43:57;98549.91;;;18.87;78.29
18858;BME280;9558;50.178;8.370;2022-10-31T11:46:32;98538.59;;;18.86;78.17
18858;BME280;9558;50.178;8.370;2022-10-31T11:49:00;98546.44;;;18.86;77.03
18858;BME280;9558;50.178;8.370;2022-10-31T11:51:31;98544.22;;;18.90;79.10
18858;BME280;9558;50.178;8.370;2022-10-31T11:54:00;98530.69;;;18.93;80.20
18858;BME280;9558;50.178;8.370;2022-10-31T11:56:37;98537.53;;;18.94;77.41
18858;BME280;9558;50.178;8.370;2022-10-31T11:59:06;98528.06;;;18.93;78.13
18858;BME280;9558;50.178;8.370;2022-10-31T12:01:47;98532.84;;;18.96;78.51
18858;BME280;9558;50.178;8.370;2022-10-31T12:04:15;98526.03;;;18.95;74.83
18858;BME280;9558;50.178;8.370;2022-10-31T12:06:44;98527.38;;;18.97;77.01
18858;BME280;9558;50.178;8.370;2022-10-31T12:09:20;98528.78;;;19.00;77.92
18858;BME280;9558;50.178;8.370;2022-10-31T12:11:57;98528.31;;;19.03;78.32
18858;BME280;9558;50.178;8.370;2022-10-31T12:14:33;98530.94;;;19.03;77.61
18858;BME280;9558;50.178;8.370;2022-10-31T12:17:08;98525.84;;;19.08;76.59
18858;BME280;9558;50.178;8.370;2022-10-31T12:19:42;98522.56;;;19.13;77.50
18858;BME280;9558;50.178;8.370;2022-10-31T12:22:20;98518.47;;;19.17;75.52
18858;BME280;9558;50.178;8.370;2022-10-31T12:25:11;98527.72;;;19.20;76.26
18858;BME280;9558;50.178;8.370;2022-10-31T12:27:53;98518.38;;;19.24;75.53
18858;BME280;9558;50.178;8.370;2022-10-31T12:30:26;98506.72;;;19.20;70.73
18858;BME280;9558;50.178;8.370;2022-10-31T12:33:18;98495.34;;;19.26;75.77
18858;BME280;9558;50.178;8.370;2022-10-31T12:35:52;98482.59;;;19.29;75.13
18858;BME280;9558;50.178;8.370;2022-10-31T12:38:42;98483.22;;;19.25;72.41
18858;BME280;9558;50.178;8.370;2022-10-31T12:41:24;98479.13;;;19.29;74.84
18858;BME280;9558;50.178;8.370;2022-10-31T12:43:57;98465.69;;;19.25;72.90
18858;BME280;9558;50.178;8.370;2022-10-31T12:46:31;98467.50;;;19.25;74.57
18858;BME280;9558;50.178;8.370;2022-10-31T12:49:16;98456.56;;;19.28;75.69
18858;BME280;9558;50.178;8.370;2022-10-31T12:51:51;98454.59;;;19.23;74.34
18858;BME280;9558;50.178;8.370;2022-10-31T12:54:39;98450.72;;;19.26;75.51
18858;BME280;9558;50.178;8.370;2022-10-31T12:57:17;98455.06;;;19.20;75.37
18858;BME280;9558;50.178;8.370;2022-10-31T12:59:50;98441.00;;;19.14;71.93
18858;BME280;9558;50.178;8.370;2022-10-31T13:02:20;98441.22;;;19.13;74.09
18858;BME280;9558;50.178;8.370;2022-10-31T13:04:52;98437.38;;;19.15;73.11
18858;BME280;9558;50.178;8.370;2022-10-31T13:07:24;98428.59;;;19.22;74.19
18858;BME280;9558;50.178;8.370;2022-10-31T13:09:59;98423.47;;;19.27;72.96
18858;BME280;9558;50.178;8.370;2022-10-31T13:12:29;98418.38;;;19.32;72.23
18858;BME280;9558;50.178;8.370;2022-10-31T13:14:59;98415.28;;;19.35;72.42
18858;BME280;9558;50.178;8.370;2022-10-31T13:17:31;98416.53;;;19.32;71.17
18858;BME280;9558;50.178;8.370;2022-10-31T13:20:13;98410.50;;;19.32;72.40
18858;BME280;9558;50.178;8.370;2022-10-31T13:22:44;98403.72;;;19.24;71.18
18858;BME280;9558;50.178;8.370;2022-10-31T13:25:16;98392.44;;;19.24;72.39
18858;BME280;9558;50.178;8.370;2022-10-31T13:27:46;98394.59;;;19.15;71.97